createdAt,value
2023-03-02T00:01:44.150Z,101489.94
2023-03-02T00:06:49.223Z,101487.25
2023-03-02T00:11:52.223Z,101486.53
2023-03-02T00:16:54.993Z,101495.59
2023-03-02T00:21:57.841Z,101487.41
2023-03-02T00:27:00.879Z,101478.81
2023-03-02T00:32:05.348Z,101479.06
2023-03-02T00:37:08.378Z,101477.91
2023-03-02T00:42:11.378Z,101476.50
2023-03-02T00:47:14.290Z,101479.34
2023-03-02T00:52:17.894Z,101475.91
2023-03-02T00:57:20.669Z,101467.78
2023-03-02T01:02:23.733Z,101473.22
2023-03-02T01:07:28.672Z,101485.72
2023-03-02T01:12:32.097Z,101480.16
2023-03-02T01:17:35.292Z,101486.28
2023-03-02T01:22:38.260Z,101467.53
2023-03-02T01:27:41.018Z,101479.78
2023-03-02T01:32:43.980Z,101493.16
2023-03-02T01:37:46.885Z,101482.56
2023-03-02T01:42:57.379Z,101490.22
2023-03-02T01:48:00.246Z,101503.50
2023-03-02T01:53:04.718Z,101487.88
2023-03-02T01:58:08.602Z,101477.25
2023-03-02T02:03:16.548Z,101481.25
2023-03-02T02:08:19.529Z,101483.88
2023-03-02T02:13:22.829Z,101484.75
2023-03-02T02:18:26.780Z,101479.19
2023-03-02T02:34:02.199Z,101487.31
2023-03-02T02:39:07.879Z,101489.16
2023-03-02T02:44:16.313Z,101501.94
2023-03-02T02:49:33.521Z,101501.25
2023-03-02T02:54:37.882Z,101503.38
2023-03-02T02:59:46.551Z,101492.41
2023-03-02T03:04:49.511Z,101490.28
2023-03-02T03:10:01.206Z,101499.50
2023-03-02T03:15:07.882Z,101504.53
2023-03-02T03:20:16.522Z,101524.06
2023-03-02T03:25:22.408Z,101506.53
2023-03-02T03:30:26.040Z,101513.69
2023-03-02T03:35:29.285Z,101523.59
2023-03-02T03:40:34.545Z,101538.47
2023-03-02T03:45:38.826Z,101554.00
2023-03-02T03:50:41.828Z,101539.63
2023-03-02T03:55:44.816Z,101532.41
2023-03-02T04:00:47.893Z,101530.25
2023-03-02T04:05:50.957Z,101537.22
2023-03-02T04:10:54.225Z,101535.53
2023-03-02T04:15:57.403Z,101540.16
2023-03-02T04:21:00.555Z,101537.81
2023-03-02T04:26:05.365Z,101543.03
2023-03-02T04:31:09.091Z,101532.81
2023-03-02T04:36:12.521Z,101544.19
2023-03-02T04:41:17.177Z,101549.88
2023-03-02T04:46:23.739Z,101557.16
2023-03-02T04:51:30.931Z,101551.91
2023-03-02T04:56:35.189Z,101548.38
2023-03-02T05:01:38.392Z,101550.47
2023-03-02T05:06:41.297Z,101553.69
2023-03-02T05:11:44.218Z,101548.19
2023-03-02T05:16:47.153Z,101555.28
2023-03-02T05:21:50.275Z,101559.13
2023-03-02T05:26:53.239Z,101552.63
2023-03-02T05:31:56.352Z,101550.22
2023-03-02T05:37:00.701Z,101555.72
2023-03-02T05:42:06.698Z,101551.69
2023-03-02T05:47:12.274Z,101546.94
2023-03-02T05:52:15.360Z,101552.69
2023-03-02T05:57:18.367Z,101556.75
2023-03-02T06:02:21.800Z,101553.38
2023-03-02T06:07:33.620Z,101547.66
2023-03-02T06:12:40.667Z,101544.91
2023-03-02T06:17:49.711Z,101542.38
2023-03-02T06:22:58.966Z,101550.13
2023-03-02T06:28:07.619Z,101550.47
2023-03-02T06:33:32.895Z,101557.91
2023-03-02T06:38:42.453Z,101551.72
2023-03-02T06:43:47.458Z,101561.63
2023-03-02T06:48:50.601Z,101554.72
2023-03-02T06:53:53.497Z,101554.81
2023-03-02T06:58:56.784Z,101537.44
2023-03-02T07:04:00.191Z,101553.88
2023-03-02T07:09:03.540Z,101562.88
2023-03-02T07:14:07.936Z,101558.00
2023-03-02T07:19:14.272Z,101531.56
2023-03-02T07:24:20.983Z,101552.03
2023-03-02T07:29:29.268Z,101531.06
2023-03-02T07:34:39.947Z,101536.50
2023-03-02T07:39:44.794Z,101537.09
2023-03-02T07:44:48.355Z,101526.69
2023-03-02T07:49:51.485Z,101528.88
2023-03-02T07:54:54.502Z,101533.25
2023-03-02T07:59:57.585Z,101537.06
2023-03-02T08:05:00.710Z,101547.16
2023-03-02T08:10:05.136Z,101542.00
2023-03-02T08:15:08.890Z,101521.53
2023-03-02T08:20:14.622Z,101521.25
2023-03-02T08:25:19.606Z,101520.16
2023-03-02T08:30:23.656Z,101515.78
2023-03-02T08:35:26.918Z,101520.38
2023-03-02T08:40:30.705Z,101523.94
2023-03-02T08:45:35.413Z,101506.50
2023-03-02T08:56:03.513Z,101488.47
2023-03-02T09:01:17.578Z,101492.28
2023-03-02T09:06:29.880Z,101484.13
2023-03-02T09:11:35.306Z,101481.63
2023-03-02T09:16:39.508Z,101488.44
2023-03-02T09:21:42.955Z,101491.22
2023-03-02T09:26:46.004Z,101478.09
2023-03-02T09:31:49.688Z,101475.38
2023-03-02T09:36:52.998Z,101467.72
2023-03-02T09:47:41.425Z,101457.78
2023-03-02T09:53:26.520Z,101468.50
2023-03-02T10:13:59.368Z,101449.47
2023-03-02T10:26:01.217Z,101438.66
2023-03-02T10:31:18.788Z,101462.81
2023-03-02T10:41:43.299Z,101477.31
2023-03-02T10:46:47.564Z,101474.63
2023-03-02T10:51:57.727Z,101473.84
2023-03-02T10:57:03.532Z,101450.72
2023-03-02T11:07:29.206Z,101491.03
2023-03-02T11:12:35.693Z,101464.28
2023-03-02T11:17:41.119Z,101477.41
2023-03-02T11:22:53.252Z,101469.22
2023-03-02T11:28:05.920Z,101503.19
2023-03-02T11:33:24.577Z,101488.97
2023-03-02T11:38:37.373Z,101490.59
2023-03-02T11:43:40.495Z,101501.00
2023-03-02T11:48:49.115Z,101483.81
2023-03-02T11:59:20.690Z,101499.88
2023-03-02T12:04:28.202Z,101499.38
2023-03-02T12:09:36.675Z,101515.25
2023-03-02T12:14:43.527Z,101501.28
2023-03-02T12:19:47.702Z,101516.91
2023-03-02T12:25:02.013Z,101513.06
2023-03-02T12:35:23.033Z,101507.06
2023-03-02T12:46:22.479Z,101507.34
2023-03-02T12:51:31.293Z,101492.22
2023-03-02T12:56:36.336Z,101491.66
2023-03-02T13:01:39.555Z,101495.03
2023-03-02T13:06:42.519Z,101504.16
2023-03-02T13:11:47.027Z,101495.16
2023-03-02T13:17:03.889Z,101498.53
2023-03-02T13:22:11.285Z,101495.88
2023-03-02T13:27:20.607Z,101495.41
2023-03-02T13:32:27.464Z,101490.56
2023-03-02T13:37:44.093Z,101491.09
2023-03-02T13:42:47.227Z,101499.34
2023-03-02T13:47:50.422Z,101498.22
2023-03-02T13:52:56.760Z,101518.16
2023-03-02T13:58:01.056Z,101520.94
2023-03-02T14:03:18.110Z,101513.56
2023-03-02T14:08:22.572Z,101525.88
2023-03-02T14:13:30.655Z,101497.69
2023-03-02T14:23:47.151Z,101511.91
2023-03-02T14:28:59.847Z,101507.31
2023-03-02T14:34:13.592Z,101513.34
2023-03-02T14:39:24.217Z,101515.53
2023-03-02T14:44:27.005Z,101510.34
2023-03-02T14:49:29.941Z,101511.97
2023-03-02T14:54:45.257Z,101517.72
2023-03-02T14:59:49.259Z,101519.06
2023-03-02T15:04:56.545Z,101527.28
2023-03-02T15:09:59.660Z,101532.75
2023-03-02T15:15:02.715Z,101535.22
2023-03-02T15:20:07.054Z,101545.31
2023-03-02T15:25:10.302Z,101544.50
2023-03-02T15:30:13.478Z,101547.78
2023-03-02T15:35:18.990Z,101548.59
2023-03-02T15:40:21.966Z,101539.84
2023-03-02T15:45:26.139Z,101554.34
2023-03-02T15:50:28.994Z,101550.22
2023-03-02T15:55:34.806Z,101547.78
2023-03-02T16:00:38.747Z,101554.34
2023-03-02T16:05:42.202Z,101574.03
2023-03-02T16:10:55.304Z,101565.56
2023-03-02T16:16:02.176Z,101554.06
2023-03-02T16:21:05.280Z,101543.44
2023-03-02T16:26:10.487Z,101543.16
2023-03-02T16:31:17.895Z,101544.78
2023-03-02T16:36:22.470Z,101547.78
2023-03-02T16:41:26.111Z,101557.63
2023-03-02T16:46:33.897Z,101550.78
2023-03-02T16:51:37.363Z,101560.34
2023-03-02T16:56:42.639Z,101570.19
2023-03-02T17:01:46.153Z,101577.03
2023-03-02T17:07:00.446Z,101586.63
2023-03-02T17:12:05.241Z,101571.56
2023-03-02T17:17:08.797Z,101567.75
2023-03-02T17:22:12.899Z,101566.38
2023-03-02T17:27:24.829Z,101572.09
2023-03-02T17:32:28.444Z,101567.47
2023-03-02T17:37:31.494Z,101565.84
2023-03-02T17:42:34.649Z,101601.63
2023-03-02T17:47:37.645Z,101577.03
2023-03-02T17:52:41.814Z,101583.59
2023-03-02T17:57:44.932Z,101592.91
2023-03-02T18:02:48.561Z,101576.75
2023-03-02T18:07:54.710Z,101575.13
2023-03-02T18:12:58.659Z,101589.34
2023-03-02T18:18:01.777Z,101582.22
2023-03-02T18:23:04.726Z,101583.03
2023-03-02T18:28:09.041Z,101587.97
2023-03-02T18:33:12.997Z,101586.88
2023-03-02T18:38:15.981Z,101600.28
2023-03-02T18:43:18.964Z,101589.06
2023-03-02T18:48:21.906Z,101592.88
2023-03-02T18:53:25.053Z,101603.00
2023-03-02T18:58:28.049Z,101588.75
2023-03-02T19:03:31.619Z,101599.16
2023-03-02T19:08:35.904Z,101609.50
2023-03-02T19:13:38.919Z,101604.59
2023-03-02T19:18:45.058Z,101613.06
2023-03-02T19:23:48.009Z,101605.41
2023-03-02T19:28:51.318Z,101590.13
2023-03-02T19:33:54.730Z,101593.94
2023-03-02T19:38:57.661Z,101605.16
2023-03-02T19:44:03.702Z,101597.50
2023-03-02T19:49:07.690Z,101611.16
2023-03-02T19:54:10.660Z,101616.59
2023-03-02T19:59:13.592Z,101620.72
2023-03-02T20:04:18.982Z,101618.28
2023-03-02T20:09:21.988Z,101623.47
2023-03-02T20:14:33.898Z,101631.69
2023-03-02T20:19:37.227Z,101631.41
2023-03-02T20:24:43.200Z,101624.31
2023-03-02T20:29:46.382Z,101639.34
2023-03-02T20:34:49.485Z,101655.72
2023-03-02T20:39:54.018Z,101630.06
2023-03-02T20:44:59.572Z,101648.03
2023-03-02T20:50:05.527Z,101630.88
2023-03-02T20:55:11.234Z,101629.50
2023-03-02T21:00:23.247Z,101613.09
2023-03-02T21:05:29.829Z,101627.63
2023-03-02T21:10:38.912Z,101618.56
2023-03-02T21:15:43.416Z,101615.59
2023-03-02T21:20:47.573Z,101614.22
2023-03-02T21:25:51.091Z,101607.66
2023-03-02T21:30:55.739Z,101608.75
2023-03-02T21:36:01.774Z,101610.38
2023-03-02T21:41:06.578Z,101610.66
2023-03-02T21:46:14.749Z,101606.00
2023-03-02T21:51:19.576Z,101603.81
2023-03-02T21:56:25.856Z,101619.94
2023-03-02T22:01:30.251Z,101621.31
2023-03-02T22:06:35.643Z,101617.47
2023-03-02T22:11:40.572Z,101614.75
2023-03-02T22:16:48.386Z,101615.03
2023-03-02T22:21:55.064Z,101619.69
2023-03-02T22:32:31.426Z,101607.66
2023-03-02T22:37:35.296Z,101632.53
2023-03-02T22:42:38.251Z,101604.66
2023-03-02T22:47:42.852Z,101609.28
2023-03-02T22:52:45.877Z,101603.81
2023-03-02T22:57:49.034Z,101598.09
2023-03-02T23:02:55.544Z,101597.81
2023-03-02T23:08:20.341Z,101605.75
2023-03-02T23:13:27.271Z,101604.09
2023-03-02T23:18:33.004Z,101605.44
2023-03-02T23:23:36.063Z,101611.50
2023-03-02T23:28:39.030Z,101609.03
2023-03-02T23:33:42.636Z,101609.28
2023-03-02T23:38:45.799Z,101589.34
2023-03-02T23:43:49.054Z,101591.25
2023-03-02T23:48:52.779Z,101574.31
2023-03-02T23:53:56.408Z,101563.91
2023-03-02T23:58:59.623Z,101571.00
